Terminal Aerodrome Forecast
Issued by NWS

Home | Current Version | Previous Version | Text Only | Print | Product List | Glossary On
Versions: 1 2 3 4 5 6 7 8 9 10 11 12 13 14 15 16 17
643
FTAK31 PAJN 241738
TAFAWG
TAF
PAWG 241738Z 2418/2518 05007KT P6SM -SHRA SCT005 BKN025 OVC040
     FM250300 11012G20KT 6SM -SHRA BR OVC025 WS020/13035KT
      AMD LTD TO CLD VIS AND WIND 2506/2515=

USA.gov is the U.S. government's official web portal to all federal, state and local government web resources and services.